Time;durP1;ratioP1;P1;durP2;ratioP2;P2;SDS_P1;SDS_P2;PMS_P1;PMS_P2;Temp;Humidity;BMP_temperature;BMP_pressure;BME280_temperature;BME280_humidity;BME280_pressure;Samples;Min_cycle;Max_cycle;Signal;HPM_P1;HPM_P2
2022/06/27 00:00:00;;;;;;;9.15;4.85;;;;;;;23.65;56.50;100499.69;3722472;77;99039;-78
2022/06/27 00:05:01;;;;;;;6.97;4.47;;;;;;;23.63;56.87;100502.20;3696587;78;98782;-78
2022/06/27 00:10:02;;;;;;;7.55;4.20;;;;;;;23.61;57.64;100497.67;3717605;78;99316;-78
2022/06/27 00:15:05;;;;;;;7.47;4.50;;;;;;;23.57;57.62;100501.85;3703265;76;98529;-78
2022/06/27 00:20:06;;;;;;;10.32;5.00;;;;;;;;;;3717320;78;99314;-78
2022/06/27 00:25:09;;;;;;;8.70;4.47;;;;;;;23.43;57.93;100493.38;3712385;78;71310;-78
2022/06/27 00:30:11;;;;;;;9.10;4.60;;;;;;;23.37;58.07;100493.82;3704380;77;98474;-78
2022/06/27 00:35:12;;;;;;;8.43;4.50;;;;;;;23.33;57.79;100491.77;3630482;80;98807;-78
2022/06/27 00:40:14;;;;;;;9.33;4.85;;;;;;;23.22;57.79;100497.67;3639752;80;98897;-78
2022/06/27 00:45:15;;;;;;;7.78;4.75;;;;;;;23.13;58.33;100494.16;3621692;80;99213;-79
2022/06/27 00:50:16;;;;;;;10.15;4.80;;;;;;;23.08;58.70;100494.77;3638002;80;98883;-78
2022/06/27 00:55:17;;;;;;;14.03;4.87;;;;;;;23.03;58.73;100494.56;3625713;80;98620;-78
2022/06/27 01:00:19;;;;;;;9.40;4.65;;;;;;;23.00;58.59;100484.27;3612126;79;98868;-78
2022/06/27 01:05:20;;;;;;;7.80;5.17;;;;;;;22.93;58.70;100489.52;3642067;78;98694;-78
2022/06/27 01:10:21;;;;;;;9.88;4.75;;;;;;;22.88;59.06;100481.70;3641106;78;98543;-78
2022/06/27 01:15:24;;;;;;;9.55;5.35;;;;;;;22.83;59.28;100477.31;3597550;80;98706;-78
2022/06/27 01:20:25;;;;;;;7.67;4.80;;;;;;;22.78;60.19;100484.28;3634053;80;98936;-78
2022/06/27 01:25:26;;;;;;;7.72;4.70;;;;;;;22.81;60.81;100481.98;3640632;79;98603;-78
2022/06/27 01:30:28;;;;;;;10.65;5.40;;;;;;;22.80;61.12;100490.23;3656072;79;99038;-78
2022/06/27 01:35:29;;;;;;;8.25;4.97;;;;;;;22.78;61.14;100489.89;3722472;78;98782;-78
2022/06/27 01:40:30;;;;;;;10.15;5.67;;;;;;;22.75;61.63;100490.03;3731975;77;98368;-78
2022/06/27 01:45:32;;;;;;;10.93;5.80;;;;;;;22.73;61.99;100480.66;3710964;78;98890;-78
2022/06/27 01:50:34;;;;;;;10.63;5.55;;;;;;;22.73;61.91;100482.06;3718589;78;99302;-78
2022/06/27 01:55:35;;;;;;;9.73;5.28;;;;;;;22.70;62.38;100478.79;3722390;78;99050;-78
2022/06/27 02:00:36;;;;;;;10.32;5.17;;;;;;;22.70;62.55;100479.39;3713684;78;98660;-78
2022/06/27 02:05:37;;;;;;;9.88;5.45;;;;;;;22.65;62.49;100473.77;3718210;77;98966;-78
2022/06/27 02:10:39;;;;;;;11.30;5.65;;;;;;;22.61;62.72;100472.34;3730739;78;98891;-78
2022/06/27 02:16:05;;;;;;;8.58;5.70;;;;;;;22.55;62.60;100476.98;3717880;77;98916;-78
2022/06/27 02:21:26;;;;;;;;;;;;;;;22.46;63.06;100472.06;3720191;78;98410;-78
2022/06/27 02:26:30;;;;;;;10.72;6.30;;;;;;;22.38;63.41;100474.94;3716038;78;84777;-78
2022/06/27 02:31:32;;;;;;;8.05;5.30;;;;;;;22.21;62.78;100475.57;3716568;78;98891;-78
2022/06/27 02:36:38;;;;;;;8.88;5.60;;;;;;;22.20;63.71;100479.01;3720027;78;97902;-78
2022/06/27 02:41:41;;;;;;;9.13;5.40;;;;;;;22.19;63.88;100485.83;3713245;78;98505;-78
2022/06/27 02:46:42;;;;;;;11.05;6.37;;;;;;;22.20;64.27;100483.22;3721099;78;98811;-78
2022/06/27 02:52:12;;;;;;;8.95;6.03;;;;;;;22.18;63.85;100486.31;3657159;78;99244;-79
2022/06/27 02:57:55;;;;;;;11.12;7.22;;;;;;;22.15;64.77;100488.61;3650551;79;98039;-78
2022/06/27 03:02:59;;;;;;;9.40;5.80;;;;;;;22.14;64.74;100483.63;3651379;79;99403;-78
2022/06/27 03:08:00;;;;;;;10.40;6.23;;;;;;;22.12;64.62;100490.93;3719548;78;99288;-78
2022/06/27 03:13:01;;;;;;;9.10;5.67;;;;;;;22.08;64.77;100496.64;3724311;78;98807;-78
2022/06/27 03:18:02;;;;;;;11.95;7.28;;;;;;;22.04;64.97;100498.00;3719844;78;98395;-78
2022/06/27 03:23:03;;;;;;;9.98;6.25;;;;;;;21.97;64.48;100501.06;3721128;78;99371;-78
2022/06/27 03:28:04;;;;;;;10.53;5.95;;;;;;;21.87;64.99;100494.59;3719573;78;99388;-77
2022/06/27 03:33:06;;;;;;;11.53;6.25;;;;;;;21.85;65.28;100508.25;3685331;78;98970;-77
2022/06/27 03:38:08;;;;;;;10.68;6.83;;;;;;;21.86;65.26;100506.24;3677435;78;99406;-78
2022/06/27 03:43:09;;;;;;;10.38;6.80;;;;;;;21.85;65.87;100511.05;3671685;79;99080;-77
2022/06/27 03:49:59;;;;;;;11.75;6.50;;;;;;;21.78;65.18;100525.30;3676991;79;99182;-78
2022/06/27 03:53:13;;;;;;;12.00;6.20;;;;;;;21.76;65.90;100524.98;3690748;78;99401;-77
2022/06/27 03:58:13;;;;;;;12.07;6.53;;;;;;;21.79;65.75;100530.30;3722012;77;99567;-78
2022/06/27 04:03:14;;;;;;;11.53;7.15;;;;;;;21.81;65.91;100536.23;3711871;77;98616;-77
2022/06/27 04:08:15;;;;;;;10.25;6.62;;;;;;;21.80;66.12;100532.63;3711096;78;99047;-78
2022/06/27 04:13:16;;;;;;;12.30;6.55;;;;;;;21.84;65.92;100533.30;3705680;79;99086;-77
2022/06/27 04:18:17;;;;;;;11.40;6.90;;;;;;;21.84;66.03;100529.70;3716319;77;98837;-78
2022/06/27 04:23:18;;;;;;;12.35;7.12;;;;;;;21.85;66.03;100527.09;3714411;77;99213;-78
2022/06/27 04:28:19;;;;;;;11.57;7.00;;;;;;;21.84;65.94;100519.30;3729190;78;98897;-77
2022/06/27 04:33:20;;;;;;;11.50;7.03;;;;;;;21.89;66.34;100529.14;3737247;76;98656;-77
2022/06/27 04:38:22;;;;;;;12.37;7.50;;;;;;;21.92;66.04;100527.64;3740018;77;99402;-78
2022/06/27 04:43:26;;;;;;;11.18;7.25;;;;;;;21.96;66.01;100534.53;3727767;77;98985;-76
2022/06/27 04:48:26;;;;;;;14.63;8.45;;;;;;;22.00;66.04;100541.58;3759353;77;99266;-77
2022/06/27 04:53:28;;;;;;;11.97;7.28;;;;;;;22.09;66.07;100545.87;3767344;76;99210;-78
2022/06/27 04:58:29;;;;;;;11.33;7.53;;;;;;;22.19;65.43;100535.53;3749556;77;98956;-77
2022/06/27 05:03:30;;;;;;;12.28;7.50;;;;;;;22.33;65.15;100537.83;3760538;77;99373;-79
2022/06/27 05:08:32;;;;;;;16.80;7.92;;;;;;;22.48;64.61;100533.31;3769188;77;98209;-77
2022/06/27 05:13:33;;;;;;;9.83;7.05;;;;;;;22.65;64.01;100534.09;3758469;77;98958;-78
2022/06/27 05:18:34;;;;;;;14.07;7.00;;;;;;;22.88;63.83;100537.83;3767355;77;99067;-77
2022/06/27 05:23:39;;;;;;;12.88;7.00;;;;;;;23.23;63.56;100544.95;3761294;77;98941;-79
2022/06/27 05:28:41;;;;;;;19.73;7.53;;;;;;;23.72;62.92;100542.19;3748471;77;99310;-78
2022/06/27 05:33:43;;;;;;;11.73;6.70;;;;;;;24.31;61.75;100547.34;3710716;77;99465;-79
2022/06/27 05:38:44;;;;;;;10.68;6.40;;;;;;;24.98;60.64;100550.16;3553383;81;99400;-78
2022/06/27 05:43:45;;;;;;;11.48;6.30;;;;;;;25.68;59.67;100553.09;3670344;79;98633;-78
2022/06/27 05:48:46;;;;;;;11.73;5.80;;;;;;;26.48;58.39;100552.47;3671929;79;99212;-79
2022/06/27 05:53:48;;;;;;;9.75;5.35;;;;;;;27.26;57.08;100547.06;3671249;79;98954;-78
2022/06/27 05:58:50;;;;;;;10.43;5.90;;;;;;;27.87;54.88;100549.63;3686810;78;98851;-79
2022/06/27 06:03:52;;;;;;;9.03;5.08;;;;;;;28.50;52.41;100552.16;3643042;79;99345;-79
2022/06/27 06:08:53;;;;;;;10.32;5.35;;;;;;;28.86;51.16;100547.27;3603424;79;99127;-80
2022/06/27 06:13:54;;;;;;;8.83;5.65;;;;;;;29.45;50.05;100552.63;3537687;82;98843;-79
2022/06/27 06:18:57;;;;;;;11.03;6.15;;;;;;;29.76;48.78;100554.83;3546542;82;33078;-80
2022/06/27 06:23:58;;;;;;;11.43;5.12;;;;;;;30.30;47.99;100554.28;3539473;82;99474;-79
2022/06/27 06:29:12;;;;;;;11.30;4.75;;;;;;;30.83;46.55;100561.36;3551188;80;99075;-79
2022/06/27 06:34:02;;;;;;;8.48;4.67;;;;;;;31.19;45.69;100552.66;3649897;79;99034;-79
2022/06/27 06:39:05;;;;;;;8.58;5.03;;;;;;;31.67;45.28;100548.12;3673741;79;98807;-78
2022/06/27 06:44:07;;;;;;;8.00;4.80;;;;;;;32.17;43.92;100552.44;3652176;79;98625;-80
2022/06/27 06:49:10;;;;;;;10.07;5.17;;;;;;;32.46;42.61;100543.92;3601117;81;25988;-78
2022/06/27 06:54:15;;;;;;;7.80;4.97;;;;;;;32.75;42.09;100537.58;3582628;81;99323;-78
2022/06/27 06:59:17;;;;;;;8.25;4.85;;;;;;;32.81;41.54;100531.21;3596470;80;99049;-78
2022/06/27 07:04:19;;;;;;;8.88;4.67;;;;;;;33.09;41.16;100528.94;3619763;80;99032;-78
2022/06/27 07:09:20;;;;;;;8.90;4.50;;;;;;;33.00;40.39;100534.96;3595795;82;98800;-78
2022/06/27 07:14:21;;;;;;;9.73;4.80;;;;;;;33.32;40.22;100539.69;3709270;78;98867;-79
2022/06/27 07:19:23;;;;;;;8.85;5.17;;;;;;;33.52;39.44;100534.95;3728272;78;26472;-78
2022/06/27 07:24:24;;;;;;;7.12;4.40;;;;;;;33.73;38.71;100535.30;3708562;78;98740;-78
2022/06/27 07:29:30;;;;;;;9.33;4.20;;;;;;;33.92;38.72;100545.50;3728661;78;99574;-78
2022/06/27 07:34:31;;;;;;;7.47;4.05;;;;;;;34.30;38.38;100539.25;3687774;78;98611;-78
2022/06/27 07:39:32;;;;;;;10.75;4.67;;;;;;;34.63;37.19;100537.38;3673199;78;99150;-78
2022/06/27 07:44:34;;;;;;;22.17;5.45;;;;;;;34.72;36.71;100539.22;3675735;78;98854;-79
2022/06/27 07:49:36;;;;;;;22.42;5.37;;;;;;;35.18;36.09;100533.72;3666182;79;27482;-78
2022/06/27 07:54:37;;;;;;;11.03;4.85;;;;;;;35.21;35.86;100527.71;3683519;79;99360;-78
2022/06/27 07:59:38;;;;;;;11.68;5.05;;;;;;;35.40;35.62;100532.74;3740530;78;97960;-77
2022/06/27 08:04:41;;;;;;;11.80;4.95;;;;;;;35.69;35.49;100533.13;3719352;78;99070;-76
2022/06/27 08:09:43;;;;;;;7.92;4.22;;;;;;;35.99;35.42;100527.91;3717291;78;99295;-77
2022/06/27 08:14:45;;;;;;;8.68;4.35;;;;;;;35.96;34.36;100525.37;3712797;78;99316;-78
2022/06/27 08:19:46;;;;;;;9.30;4.75;;;;;;;36.20;34.37;100533.77;3729452;78;25826;-78
2022/06/27 08:24:48;;;;;;;6.53;3.52;;;;;;;36.85;33.56;100524.42;3735064;77;98975;-79
2022/06/27 08:29:49;;;;;;;7.15;3.87;;;;;;;37.37;32.74;100530.62;3709197;78;98611;-79
2022/06/27 08:34:51;;;;;;;8.05;3.65;;;;;;;37.73;31.16;100522.24;3697032;78;98825;-79
2022/06/27 08:39:53;;;;;;;9.03;4.10;;;;;;;37.73;31.16;100522.24;3711770;78;98016;-79
2022/06/27 08:44:55;;;;;;;6.75;3.27;;;;;;;37.67;31.58;100526.59;3709216;78;98582;-79
2022/06/27 08:49:56;;;;;;;7.17;3.98;;;;;;;38.11;31.40;100524.73;3696729;77;98842;-78
2022/06/27 08:55:01;;;;;;;8.70;4.28;;;;;;;38.18;30.62;100520.34;3697426;78;98676;-79
2022/06/27 09:00:04;;;;;;;7.33;4.37;;;;;;;38.31;30.58;100525.30;3714032;78;98713;-79
2022/06/27 09:05:03;;;;;;;6.15;3.58;;;;;;;38.37;30.20;100518.74;3703239;78;98564;-80
2022/06/27 09:10:29;;;;;;;6.53;4.10;;;;;;;38.56;29.56;100523.54;3722659;78;98883;-79
2022/06/27 09:15:41;;;;;;;9.53;3.92;;;;;;;38.84;29.94;100513.38;3702751;78;98535;-79
2022/06/27 09:20:54;;;;;;;6.37;3.87;;;;;;;39.32;28.29;100518.13;3689477;79;99110;-79
2022/06/27 09:26:04;;;;;;;14.75;5.22;;;;;;;39.42;28.26;100504.69;3639784;79;98836;-78
2022/06/27 09:31:04;;;;;;;8.60;4.15;;;;;;;39.71;27.78;100515.34;3612049;80;27441;-79
2022/06/27 09:36:09;;;;;;;8.48;3.92;;;;;;;39.82;27.86;100504.89;3627411;79;98699;-80
2022/06/27 09:41:14;;;;;;;8.40;3.92;;;;;;;39.87;27.65;100504.67;3629876;80;97961;-79
2022/06/27 09:46:17;;;;;;;19.30;5.15;;;;;;;39.91;26.39;100497.85;3629299;79;98670;-81
2022/06/27 09:51:21;;;;;;;11.93;4.28;;;;;;;40.06;26.10;100506.48;3765378;77;99050;-77
2022/06/27 09:56:22;;;;;;;8.30;3.92;;;;;;;39.87;26.27;100495.25;3747469;77;98888;-79
2022/06/27 10:01:24;;;;;;;12.68;4.83;;;;;;;39.93;25.98;100492.27;3660131;79;25915;-79
2022/06/27 10:06:25;;;;;;;15.32;4.85;;;;;;;40.39;26.50;100492.92;3743892;77;99478;-78
2022/06/27 10:11:27;;;;;;;8.23;3.83;;;;;;;40.11;26.25;100491.05;3746928;77;98789;-79
2022/06/27 10:16:30;;;;;;;8.68;4.30;;;;;;;40.05;25.14;100480.41;3748177;77;98908;-78
2022/06/27 10:21:35;;;;;;;6.78;4.03;;;;;;;40.31;25.83;100477.78;3753478;77;99189;-78
2022/06/27 10:26:41;;;;;;;9.00;4.15;;;;;;;40.09;25.99;100475.71;3746830;77;98380;-78
2022/06/27 10:31:46;;;;;;;8.27;3.97;;;;;;;40.84;24.91;100466.73;3750641;77;100638;-77
2022/06/27 10:36:47;;;;;;;7.12;4.12;;;;;;;40.89;25.40;100470.06;3753725;78;98651;-79
2022/06/27 10:41:49;;;;;;;5.90;3.90;;;;;;;40.92;24.40;100461.69;3749207;77;98597;-79
2022/06/27 10:46:49;;;;;;;7.75;4.15;;;;;;;41.16;24.26;100448.73;3766478;77;98643;-78
2022/06/27 10:51:51;;;;;;;10.13;4.90;;;;;;;41.07;24.19;100447.92;3744122;77;99261;-78
2022/06/27 10:56:55;;;;;;;7.70;4.33;;;;;;;41.34;24.10;100432.19;3762048;77;98566;-77
2022/06/27 11:02:05;;;;;;;12.07;4.25;;;;;;;41.34;23.79;100432.97;3729039;77;99294;-77
2022/06/27 11:07:09;;;;;;;7.03;3.77;;;;;;;41.34;23.79;100432.97;3763073;77;27462;-77
2022/06/27 11:12:14;;;;;;;10.85;4.33;;;;;;;42.00;23.66;100422.03;3753083;77;99036;-78
2022/06/27 11:17:39;;;;;;;6.55;3.98;;;;;;;42.20;22.95;100425.94;3729629;78;99034;-76
2022/06/27 11:22:42;;;;;;;7.10;4.10;;;;;;;42.18;23.16;100415.63;3676887;79;98605;-76
2022/06/27 11:31:57;;;;;;;8.60;4.42;;;;;;;41.45;23.94;100412.28;3666719;79;98879;-77
2022/06/27 11:33:02;;;;;;;7.87;4.42;;;;;;;41.32;24.21;100398.12;3647631;79;98857;-78
2022/06/27 11:38:05;;;;;;;9.48;4.53;;;;;;;41.35;24.60;100396.93;3639888;80;98864;-78
2022/06/27 11:43:08;;;;;;;8.48;4.87;;;;;;;41.50;24.14;100399.70;3626325;80;98986;-77
2022/06/27 11:48:14;;;;;;;9.45;5.35;;;;;;;41.67;24.34;100397.52;3648437;78;99004;-77
2022/06/27 11:53:15;;;;;;;9.28;6.30;;;;;;;41.31;24.11;100402.38;3632839;80;99032;-77
2022/06/27 11:58:17;;;;;;;9.73;5.20;;;;;;;41.54;23.90;100392.05;3653350;80;98928;-77
2022/06/27 12:03:18;;;;;;;9.45;4.55;;;;;;;41.18;24.43;100386.05;3609964;80;99085;-77
2022/06/27 12:08:19;;;;;;;6.35;4.47;;;;;;;41.29;23.80;100382.67;3628125;79;99343;-78
2022/06/27 12:13:20;;;;;;;8.53;5.00;;;;;;;41.00;23.89;100372.23;3605001;80;98403;-78
2022/06/27 12:18:21;;;;;;;7.35;4.03;;;;;;;40.64;24.57;100366.13;3635269;80;98674;-79
2022/06/27 12:23:22;;;;;;;6.77;4.10;;;;;;;40.93;24.06;100361.49;3641776;80;98757;-78
2022/06/27 12:28:23;;;;;;;9.08;4.12;;;;;;;40.34;23.97;100364.87;3638143;80;99187;-78
2022/06/27 12:33:24;;;;;;;4.95;3.80;;;;;;;40.13;23.95;100344.22;3637824;80;99322;-78
2022/06/27 12:38:26;;;;;;;7.40;4.00;;;;;;;40.17;24.33;100346.70;3639422;80;98870;-78
2022/06/27 12:43:27;;;;;;;9.30;3.70;;;;;;;40.43;24.44;100352.67;3633967;80;98887;-78
2022/06/27 12:48:28;;;;;;;7.37;3.80;;;;;;;40.37;24.27;100340.60;3637791;80;98692;-78
2022/06/27 12:53:30;;;;;;;7.72;3.90;;;;;;;40.13;24.20;100337.64;3632020;80;99027;-78
2022/06/27 12:58:32;;;;;;;8.13;4.17;;;;;;;40.53;24.63;100338.41;3640566;80;98830;-79
2022/06/27 13:03:34;;;;;;;5.58;3.20;;;;;;;40.85;23.67;100339.79;3622948;80;99274;-78
2022/06/27 13:08:35;;;;;;;8.23;3.55;;;;;;;40.94;23.91;100334.81;3633093;80;99204;-74
2022/06/27 13:13:37;;;;;;;7.12;4.00;;;;;;;40.56;23.61;100330.80;3627000;81;98914;-79
2022/06/27 13:18:38;;;;;;;12.13;3.90;;;;;;;40.56;23.61;100330.80;3636401;80;99014;-76
2022/06/27 13:23:39;;;;;;;7.10;3.37;;;;;;;40.76;24.22;100336.88;3626438;79;98789;-75
2022/06/27 13:28:40;;;;;;;6.30;3.62;;;;;;;40.76;24.22;100336.88;3633555;80;98820;-78
2022/06/27 13:33:41;;;;;;;7.47;3.98;;;;;;;40.75;23.76;100334.60;3623375;80;98945;-77
2022/06/27 13:38:42;;;;;;;5.25;3.00;;;;;;;40.59;23.85;100330.30;3654891;79;99322;-76
2022/06/27 13:43:43;;;;;;;6.40;3.37;;;;;;;40.43;23.74;100336.06;3650124;79;98880;-77
2022/06/27 13:48:44;;;;;;;4.78;3.20;;;;;;;39.94;24.40;100346.77;3657957;79;99066;-77
2022/06/27 13:53:45;;;;;;;6.00;3.55;;;;;;;40.13;24.47;100341.97;3655768;79;99158;-79
2022/06/27 13:58:46;;;;;;;6.03;3.90;;;;;;;40.15;23.78;100340.75;3610432;80;99221;-78
2022/06/27 14:03:47;;;;;;;8.55;3.40;;;;;;;39.66;23.28;100337.66;3652363;79;98804;-77
2022/06/27 14:08:48;;;;;;;5.00;3.33;;;;;;;39.49;24.32;100328.87;3659642;80;99166;-78
2022/06/27 14:13:49;;;;;;;6.92;3.67;;;;;;;39.31;24.10;100324.28;3645093;80;98866;-77
2022/06/27 14:18:51;;;;;;;6.15;3.22;;;;;;;39.21;24.18;100329.85;3649759;79;98721;-78
2022/06/27 14:23:52;;;;;;;6.58;3.52;;;;;;;39.01;24.19;100325.77;3638235;79;99139;-77
2022/06/27 14:28:53;;;;;;;6.00;3.40;;;;;;;38.72;24.28;100325.16;3657351;79;98797;-77
2022/06/27 14:33:54;;;;;;;7.00;3.67;;;;;;;38.58;24.66;100318.04;3629884;79;98921;-77
2022/06/27 14:38:56;;;;;;;6.20;3.50;;;;;;;38.67;24.53;100313.82;3652270;79;99263;-76
2022/06/27 14:43:57;;;;;;;7.72;3.75;;;;;;;38.44;24.27;100310.95;3650137;79;98725;-77
2022/06/27 14:48:58;;;;;;;13.38;3.10;;;;;;;38.17;24.72;100306.06;3649417;79;25756;-77
2022/06/27 14:53:59;;;;;;;7.80;3.80;;;;;;;37.95;25.33;100298.90;3642274;79;98792;-77
2022/06/27 14:59:00;;;;;;;6.33;3.90;;;;;;;37.53;25.20;100301.09;3606831;79;99187;-76
2022/06/27 15:04:01;;;;;;;6.70;3.62;;;;;;;37.23;26.09;100293.08;3632022;79;98972;-77
2022/06/27 15:09:02;;;;;;;7.42;3.50;;;;;;;37.49;26.42;100286.33;3642878;80;98897;-77
2022/06/27 15:14:09;;;;;;;8.68;3.83;;;;;;;37.14;26.64;100285.64;3650421;79;99143;-77
2022/06/27 15:19:10;;;;;;;6.50;3.77;;;;;;;37.22;26.67;100282.91;3656713;79;26292;-80
2022/06/27 15:24:12;;;;;;;9.55;4.72;;;;;;;36.97;26.38;100283.22;3648545;80;98888;-77
2022/06/27 15:29:16;;;;;;;7.70;4.03;;;;;;;36.64;26.83;100274.07;3643566;79;99295;-76
2022/06/27 15:34:17;;;;;;;;;;;;;;;36.48;27.17;100271.59;3630308;79;98783;-77
2022/06/27 15:39:18;;;;;;;10.18;4.40;;;;;;;36.56;27.48;100266.70;3589583;80;85626;-77
2022/06/27 15:44:19;;;;;;;6.25;3.83;;;;;;;36.56;27.48;100266.70;3594342;80;99555;-77
2022/06/27 15:49:20;;;;;;;6.12;3.67;;;;;;;36.35;27.83;100258.78;3586467;80;26100;-77
2022/06/27 15:54:21;;;;;;;6.12;3.75;;;;;;;36.07;27.89;100255.13;3602155;80;99092;-77
2022/06/27 15:59:23;;;;;;;7.33;3.98;;;;;;;35.61;27.89;100255.92;3602055;80;99320;-77
2022/06/27 16:04:24;;;;;;;10.70;4.28;;;;;;;35.39;28.52;100250.67;3595504;80;98788;-75
2022/06/27 16:09:26;;;;;;;6.95;4.20;;;;;;;35.31;28.85;100249.79;3585598;80;99429;-75
2022/06/27 16:14:27;;;;;;;10.10;4.47;;;;;;;35.03;28.96;100250.99;3578298;81;99178;-77
2022/06/27 16:19:28;;;;;;;8.00;3.83;;;;;;;34.73;29.04;100242.59;3594813;80;26503;-77
2022/06/27 16:24:31;;;;;;;8.08;3.85;;;;;;;34.33;29.11;100245.27;3600826;80;99067;-76
2022/06/27 16:29:32;;;;;;;11.10;4.50;;;;;;;34.00;29.69;100208.66;3585451;80;99181;-76
2022/06/27 16:34:33;;;;;;;7.45;3.70;;;;;;;34.12;29.94;100250.00;3577783;80;99061;-76
2022/06/27 16:39:34;;;;;;;10.23;4.05;;;;;;;34.00;30.21;100247.97;3643616;80;99661;-76
2022/06/27 16:44:35;;;;;;;7.10;3.98;;;;;;;33.92;30.35;100254.84;3642979;80;99283;-77
2022/06/27 16:49:36;;;;;;;8.90;3.92;;;;;;;33.68;30.52;100254.25;3652216;80;26545;-76
2022/06/27 16:54:39;;;;;;;13.35;4.55;;;;;;;33.47;31.27;100244.70;3641073;80;98936;-75
2022/06/27 16:59:41;;;;;;;6.97;3.65;;;;;;;33.29;31.52;100250.39;3647364;80;98846;-76
2022/06/27 17:04:42;;;;;;;6.17;3.40;;;;;;;33.18;31.96;100247.65;3641605;80;99157;-75
2022/06/27 17:09:43;;;;;;;13.85;4.40;;;;;;;33.03;32.38;100251.58;3639659;80;99257;-77
2022/06/27 17:14:44;;;;;;;8.33;3.87;;;;;;;32.86;32.42;100258.88;3637047;80;99306;-77
2022/06/27 17:19:45;;;;;;;7.50;3.62;;;;;;;32.80;32.84;100258.17;3628218;80;25858;-76
2022/06/27 17:24:46;;;;;;;9.73;4.22;;;;;;;32.66;32.96;100258.55;3644760;80;99148;-77
2022/06/27 17:29:47;;;;;;;7.20;4.28;;;;;;;32.55;33.10;100264.35;3622989;80;98772;-77
2022/06/27 17:34:48;;;;;;;17.17;4.28;;;;;;;32.45;33.05;100263.93;3632619;80;99218;-76
2022/06/27 17:39:50;;;;;;;7.70;3.95;;;;;;;32.39;33.17;100263.84;3602965;81;99312;-77
2022/06/27 17:44:51;;;;;;;10.35;4.25;;;;;;;32.34;33.26;100264.66;3623728;80;98901;-77
2022/06/27 17:49:52;;;;;;;8.00;4.12;;;;;;;32.29;33.78;100265.48;3630617;81;26298;-76
2022/06/27 17:54:54;;;;;;;8.65;4.30;;;;;;;32.30;34.18;100263.53;3610827;81;98915;-76
2022/06/27 17:59:55;;;;;;;8.73;3.65;;;;;;;32.29;34.28;100259.78;3627181;80;98976;-76
2022/06/27 18:04:56;;;;;;;6.87;3.90;;;;;;;32.21;34.11;100260.98;3620923;81;98913;-76
2022/06/27 18:09:57;;;;;;;9.63;4.22;;;;;;;32.20;34.56;100254.41;3630228;81;99323;-77
2022/06/27 18:14:58;;;;;;;6.45;4.17;;;;;;;32.11;34.35;100256.94;3621614;80;99228;-77
2022/06/27 18:19:59;;;;;;;7.60;4.03;;;;;;;32.08;34.82;100261.47;3628880;81;99261;-76
2022/06/27 18:25:00;;;;;;;7.08;3.60;;;;;;;31.94;34.85;100264.80;3623194;81;98821;-76
2022/06/27 18:30:01;;;;;;;10.13;4.28;;;;;;;31.80;35.17;100257.41;3630324;80;98709;-76
2022/06/27 18:35:03;;;;;;;8.08;4.55;;;;;;;31.66;35.09;100260.56;3622735;81;99003;-76
2022/06/27 18:40:06;;;;;;;7.65;3.85;;;;;;;31.55;35.73;100260.63;3616179;81;99205;-75
2022/06/27 18:45:08;;;;;;;8.73;4.47;;;;;;;31.48;35.94;100259.73;3597030;79;98972;-77
2022/06/27 18:50:09;;;;;;;10.90;4.03;;;;;;;31.36;36.72;100262.52;3597083;81;98816;-76
2022/06/27 18:55:10;;;;;;;8.08;3.92;;;;;;;31.20;37.28;100262.72;3593507;79;98998;-76
2022/06/27 19:00:14;;;;;;;9.33;4.47;;;;;;;31.01;37.70;100267.38;3597714;79;98760;-76
2022/06/27 19:05:18;;;;;;;8.67;4.53;;;;;;;30.86;37.78;100272.61;3588260;80;99168;-76
2022/06/27 19:10:19;;;;;;;9.15;4.17;;;;;;;30.70;38.29;100274.05;3597927;80;99219;-76
2022/06/27 19:15:20;;;;;;;9.20;4.33;;;;;;;30.57;39.11;100279.47;3594031;80;99164;-76
2022/06/27 19:20:21;;;;;;;7.78;3.90;;;;;;;30.39;38.83;100285.65;3600174;80;99278;-76
2022/06/27 19:25:22;;;;;;;7.50;4.45;;;;;;;30.18;39.11;100285.13;3599295;80;98575;-76
2022/06/27 19:30:24;;;;;;;10.38;5.22;;;;;;;30.02;39.39;100287.94;3602775;79;98712;-77
2022/06/27 19:35:27;;;;;;;11.48;4.95;;;;;;;29.90;40.05;100291.39;3600451;80;99119;-77
2022/06/27 19:40:30;;;;;;;9.35;4.55;;;;;;;29.75;40.09;100280.89;3650331;79;99317;-76
2022/06/27 19:45:31;;;;;;;11.03;5.08;;;;;;;29.59;40.41;100278.78;3642608;80;98973;-76
2022/06/27 19:50:32;;;;;;;11.28;5.20;;;;;;;29.43;40.66;100277.30;3641800;79;99315;-75
2022/06/27 19:55:34;;;;;;;10.28;5.22;;;;;;;29.29;40.97;100275.41;3648217;79;98603;-75
2022/06/27 20:00:37;;;;;;;9.15;5.40;;;;;;;29.14;41.32;100277.66;3653492;80;99208;-76
2022/06/27 20:05:38;;;;;;;8.18;5.45;;;;;;;29.00;41.77;100275.80;3646543;80;98763;-77
2022/06/27 20:10:39;;;;;;;9.98;6.15;;;;;;;28.89;42.13;100275.04;3646412;79;98879;-76
2022/06/27 20:15:42;;;;;;;11.10;6.67;;;;;;;28.78;42.53;100282.05;3648017;79;98836;-76
2022/06/27 20:20:43;;;;;;;9.95;5.75;;;;;;;28.64;42.92;100283.00;3653705;79;99378;-77
2022/06/27 20:25:44;;;;;;;9.35;5.47;;;;;;;28.51;43.31;100296.81;3651322;79;98303;-77
2022/06/27 20:30:45;;;;;;;8.80;5.78;;;;;;;28.38;43.72;100295.67;3642830;79;98603;-76
2022/06/27 20:35:46;;;;;;;10.33;5.53;;;;;;;28.30;44.36;100293.91;3646614;80;98570;-76
2022/06/27 20:40:47;;;;;;;10.38;5.97;;;;;;;28.21;44.51;100286.20;3595153;81;99540;-75
2022/06/27 20:45:48;;;;;;;9.35;6.40;;;;;;;28.15;45.29;100294.66;3588265;80;99379;-76
2022/06/27 20:50:50;;;;;;;11.48;5.58;;;;;;;28.13;45.96;100287.31;3588007;80;98839;-76
2022/06/27 20:55:53;;;;;;;9.65;6.55;;;;;;;27.93;46.13;100268.98;3589188;81;98785;-75
2022/06/27 21:00:53;;;;;;;10.28;6.58;;;;;;;27.94;46.51;100290.95;3595000;80;98953;-75
2022/06/27 21:05:55;;;;;;;9.43;6.37;;;;;;;27.85;46.94;100276.98;3588495;81;98542;-79
2022/06/27 21:16:16;;;;;;;11.35;7.15;;;;;;;27.70;48.11;100267.80;3588547;81;99676;-78
2022/06/27 21:21:17;;;;;;;12.68;6.95;;;;;;;27.59;48.25;100268.46;3595938;81;99415;-78
2022/06/27 21:26:18;;;;;;;10.93;6.55;;;;;;;27.49;48.78;100267.67;3588776;81;99058;-78
2022/06/27 21:31:19;;;;;;;11.22;7.08;;;;;;;27.37;49.72;100257.52;3591797;81;32876;-77
2022/06/27 21:36:20;;;;;;;13.80;7.42;;;;;;;27.26;50.29;100261.00;3589873;80;98766;-78
2022/06/27 21:41:21;;;;;;;11.28;7.30;;;;;;;27.20;51.05;100262.19;3599499;79;99210;-78
2022/06/27 21:46:23;;;;;;;15.30;7.90;;;;;;;27.09;51.37;100261.36;3616233;79;98949;-78
2022/06/27 21:51:24;;;;;;;15.85;7.78;;;;;;;27.05;51.96;100261.44;3630683;81;98958;-79
2022/06/27 21:56:25;;;;;;;10.32;7.65;;;;;;;26.94;52.10;100260.67;3593749;79;99404;-78
2022/06/27 22:01:27;;;;;;;10.88;8.05;;;;;;;26.89;52.41;100258.54;3616479;79;33492;-78
2022/06/27 22:06:28;;;;;;;11.68;7.83;;;;;;;26.81;52.55;100259.45;3609224;81;98826;-77
2022/06/27 22:11:29;;;;;;;11.95;7.15;;;;;;;26.75;52.85;100257.18;3615371;80;99092;-78
2022/06/27 22:16:30;;;;;;;13.60;8.55;;;;;;;26.68;52.83;100251.30;3608842;80;99099;-78
2022/06/27 22:21:32;;;;;;;13.22;8.10;;;;;;;26.62;52.99;100256.70;3623192;79;99058;-77
2022/06/27 22:26:33;;;;;;;11.30;8.58;;;;;;;26.57;53.09;100255.98;3619147;81;99044;-77
2022/06/27 22:31:35;;;;;;;12.82;8.28;;;;;;;26.52;53.11;100267.94;3618871;79;98918;-78
2022/06/27 22:36:36;;;;;;;12.50;8.73;;;;;;;26.49;53.60;100273.17;3611024;79;98855;-77
2022/06/27 22:41:39;;;;;;;14.60;8.40;;;;;;;26.46;53.69;100265.66;3578042;80;98969;-77
2022/06/27 22:46:40;;;;;;;15.63;8.58;;;;;;;26.44;53.70;100271.82;3594664;80;99346;-77
2022/06/27 22:51:41;;;;;;;13.45;9.48;;;;;;;26.41;54.04;100293.95;3610836;80;99547;-77
2022/06/27 22:56:42;;;;;;;11.97;8.00;;;;;;;26.37;54.23;100287.72;3566108;80;99208;-77
2022/06/27 23:01:43;;;;;;;10.70;8.00;;;;;;;26.30;54.30;100279.66;3576872;80;99351;-77
2022/06/27 23:06:46;;;;;;;14.95;8.80;;;;;;;26.27;54.55;100287.67;3606868;80;98803;-77
2022/06/27 23:11:47;;;;;;;13.20;8.40;;;;;;;26.23;54.65;100291.34;3577024;81;98939;-77
2022/06/27 23:16:49;;;;;;;10.93;7.58;;;;;;;26.23;55.00;100291.97;3608137;80;99042;-77
2022/06/27 23:21:50;;;;;;;11.78;8.80;;;;;;;26.18;55.03;100292.64;3608945;79;99001;-77